TimeCST,TemperatureF,Dew PointF,Humidity,Sea Level PressureIn,VisibilityMPH,Wind Direction,Wind SpeedMPH,Gust SpeedMPH,PrecipitationIn,Events,Conditions,WindDirDegrees,DateUTC
12:53 AM,28.9,23.0,78,30.19,10.0,NNE,9.2,-,N/A,,Overcast,20,2013-02-08 06:53:00
1:53 AM,28.0,21.0,75,30.22,10.0,NNE,6.9,-,N/A,,Overcast,30,2013-02-08 07:53:00
2:31 AM,28.4,21.2,74,30.19,10.0,Variable,3.5,-,N/A,,Overcast,0,2013-02-08 08:31:00
2:38 AM,28.4,21.2,74,30.20,10.0,NE,4.6,-,N/A,,Overcast,50,2013-02-08 08:38:00
2:53 AM,28.0,21.0,75,30.22,10.0,NE,4.6,-,N/A,,Overcast,40,2013-02-08 08:53:00
3:53 AM,28.0,19.9,72,30.26,10.0,NNE,6.9,-,N/A,,Overcast,20,2013-02-08 09:53:00
4:53 AM,27.0,21.0,78,30.28,10.0,North,4.6,-,N/A,,Overcast,10,2013-02-08 10:53:00
5:53 AM,26.1,19.9,78,30.29,10.0,Calm,Calm,-,N/A,,Overcast,0,2013-02-08 11:53:00
6:53 AM,25.0,18.0,75,30.33,10.0,North,9.2,-,N/A,,Overcast,10,2013-02-08 12:53:00
7:53 AM,25.0,17.1,72,30.37,10.0,NNE,4.6,-,N/A,,Overcast,20,2013-02-08 13:53:00
8:53 AM,26.1,18.0,71,30.38,10.0,NNE,4.6,-,N/A,,Overcast,30,2013-02-08 14:53:00
9:19 AM,26.6,17.6,69,30.35,10.0,ENE,4.6,-,N/A,,Mostly Cloudy,60,2013-02-08 15:19:00
9:53 AM,26.1,17.1,69,30.39,10.0,ENE,3.5,-,N/A,,Partly Cloudy,60,2013-02-08 15:53:00
11:53 AM,28.0,17.1,63,30.35,10.0,Calm,Calm,-,N/A,,Clear,0,2013-02-08 17:53:00
12:53 PM,28.9,17.1,61,30.35,10.0,Calm,Calm,-,N/A,,Clear,0,2013-02-08 18:53:00
1:53 PM,30.9,18.0,59,30.34,10.0,Calm,Calm,-,N/A,,Clear,0,2013-02-08 19:53:00
2:53 PM,30.9,18.0,59,30.33,10.0,East,3.5,-,N/A,,Clear,80,2013-02-08 20:53:00
3:53 PM,30.9,17.1,57,30.34,10.0,East,3.5,-,N/A,,Clear,80,2013-02-08 21:53:00
4:53 PM,30.0,16.0,56,30.33,10.0,Calm,Calm,-,N/A,,Clear,0,2013-02-08 22:53:00
5:53 PM,25.0,17.1,72,30.33,10.0,Calm,Calm,-,N/A,,Clear,0,2013-02-08 23:53:00
6:53 PM,21.9,15.1,75,30.35,10.0,Calm,Calm,-,N/A,,Clear,0,2013-02-09 00:53:00
7:53 PM,19.0,15.1,85,30.35,10.0,Calm,Calm,-,N/A,,Clear,0,2013-02-09 01:53:00
8:53 PM,16.0,12.9,88,30.35,10.0,Calm,Calm,-,N/A,,Clear,0,2013-02-09 02:53:00
9:53 PM,12.0,10.0,92,30.35,7.0,Calm,Calm,-,N/A,,Clear,0,2013-02-09 03:53:00
10:53 PM,10.9,7.0,84,30.34,8.0,Calm,Calm,-,N/A,,Clear,0,2013-02-09 04:53:00
11:41 PM,10.4,6.8,85,30.35,9.0,North,3.5,-,N/A,,Mostly Cloudy,10,2013-02-09 05:41:00
11:53 PM,9.0,6.1,88,30.40,9.0,Calm,Calm,-,N/A,,Mostly Cloudy,0,2013-02-09 05:53:00